Time;durP1;ratioP1;P1;durP2;ratioP2;P2;SDS_P1;SDS_P2;PMS_P1;PMS_P2;Temp;Humidity;BMP_temperature;BMP_pressure;BME280_temperature;BME280_humidity;BME280_pressure;Samples;Min_cycle;Max_cycle;Signal;HPM_P1;HPM_P2
2022/05/20 00:00:17;;;;;;;;;;;;;;;;;;5052380;28;19916;-44
2022/05/20 00:02:44;;;;;;;;;;;;;;;;;;5051640;28;19936;-56
2022/05/20 00:05:10;;;;;;;;;;;;;;;;;;5052242;28;19992;-56
2022/05/20 00:07:39;;;;;;;;;;;;;;;;;;5052261;28;19925;-44
2022/05/20 00:10:06;;;;;;;;;;;;;;;;;;5051328;28;19996;-60
2022/05/20 00:12:32;;;;;;;;;;;;;;;;;;5051433;28;20011;-58
2022/05/20 00:14:58;;;;;;;;;;;;;;;;;;5051862;28;19980;-46
2022/05/20 00:17:25;;;;;;;;;;;;;;;;;;5052052;28;19943;-53
2022/05/20 00:19:52;;;;;;;;;;;;;;;;;;5052529;28;20003;-52
2022/05/20 00:22:19;;;;;;;;;;;;;;;;;;5051927;28;19913;-50
2022/05/20 00:27:29;;;;;;;;;;;;;;;;;;5056126;28;19924;-60
2022/05/20 00:29:56;;;;;;;;;;;;;;;;;;5056477;28;19909;-47
2022/05/20 00:32:22;;;;;;;;;;;;;;;;;;5055886;28;20371;-55
2022/05/20 00:34:49;;;;;;;;;;;;;;;;;;5056268;28;20382;-44
2022/05/20 00:37:15;;;;;;;;;;;;;;;;;;5055979;28;20390;-55
2022/05/20 00:39:42;;;;;;;;;;;;;;;;;;5056527;28;20371;-54
2022/05/20 00:42:08;;;;;;;;;;;;;;;;;;5056107;28;19909;-55
2022/05/20 00:44:35;;;;;;;;;;;;;;;;;;5055571;28;19916;-56
2022/05/20 00:47:01;;;;;;;;;;;;;;;;;;5055698;28;20026;-47
2022/05/20 00:49:29;;;;;;;;;;;;;;;;;;5055839;28;19909;-52
2022/05/20 00:51:55;;;;;;;;;;;;;;;;;;5055712;28;19915;-58
2022/05/20 00:54:22;;;;;;;;;;;;;;;;;;5055750;28;19908;-42
2022/05/20 00:56:48;;;;;;;;;;;;;;;;;;5055484;28;19987;-53
2022/05/20 00:59:15;;;;;;;;;;;;;;;;;;5055811;28;19951;-50
2022/05/20 01:01:41;;;;;;;;;;;;;;;;;;5055399;28;19966;-46
2022/05/20 01:04:08;;;;;;;;;;;;;;;;;;5054656;28;20087;-50
2022/05/20 01:06:34;;;;;;;;;;;;;;;;;;5054674;28;19912;-48
2022/05/20 01:09:01;;;;;;;;;;;;;;;;;;5054404;28;19913;-56
2022/05/20 01:11:27;;;;;;;;;;;;;;;;;;5055072;28;19905;-47
2022/05/20 01:13:54;;;;;;;;;;;;;;;;;;5055236;28;19936;-51
2022/05/20 01:16:20;;;;;;;;;;;;;;;;;;5055008;28;19915;-57
2022/05/20 01:18:48;;;;;;;;;;;;;;;;;;5055278;28;19931;-53
2022/05/20 01:21:14;;;;;;;;;;;;;;;;;;5055242;28;19905;-49
2022/05/20 01:23:41;;;;;;;;;;;;;;;;;;5053746;28;19920;-53
2022/05/20 01:26:07;;;;;;;;;;;;;;;;;;5055126;28;20001;-53
2022/05/20 01:28:34;;;;;;;;;;;;;;;;;;5055043;28;20261;-54
2022/05/20 01:31:00;;;;;;;;;;;;;;;;;;5055034;28;19909;-48
2022/05/20 01:33:27;;;;;;;;;;;;;;;;;;5054651;28;20336;-60
2022/05/20 01:35:53;;;;;;;;;;;;;;;;;;5053609;28;19932;-46
2022/05/20 01:38:20;;;;;;;;;;;;;;;;;;5054837;28;19908;-44
2022/05/20 01:40:46;;;;;;;;;;;;;;;;;;5054672;28;19909;-45
2022/05/20 01:43:12;;;;;;;;;;;;;;;;;;5055123;28;19912;-51
2022/05/20 01:45:39;;;;;;;;;;;;;;;;;;5055160;28;19908;-46
2022/05/20 01:48:05;;;;;;;;;;;;;;;;;;5054952;28;19920;-57
2022/05/20 01:50:32;;;;;;;;;;;;;;;;;;5054531;28;20375;-51
2022/05/20 01:52:58;;;;;;;;;;;;;;;;;;5054827;28;20395;-50
2022/05/20 01:55:25;;;;;;;;;;;;;;;;;;5054466;28;19928;-58
2022/05/20 01:57:52;;;;;;;;;;;;;;;;;;5054621;28;20010;-50
2022/05/20 02:00:19;;;;;;;;;;;;;;;;;;5052810;28;19905;-51
2022/05/20 02:02:45;;;;;;;;;;;;;;;;;;5053802;28;19916;-56
2022/05/20 02:05:12;;;;;;;;;;;;;;;;;;5054637;28;19909;-50
2022/05/20 02:07:38;;;;;;;;;;;;;;;;;;5054205;28;19970;-56
2022/05/20 02:10:05;;;;;;;;;;;;;;;;;;5054131;28;19915;-54
2022/05/20 02:12:33;;;;;;;;;;;;;;;;;;5053926;28;19935;-53
2022/05/20 02:14:59;;;;;;;;;;;;;;;;;;5054664;28;19915;-53
2022/05/20 02:17:26;;;;;;;;;;;;;;;;;;5054618;28;19916;-51
2022/05/20 02:19:52;;;;;;;;;;;;;;;;;;5053637;28;19961;-47
2022/05/20 02:22:19;;;;;;;;;;;;;;;;;;5054630;28;19916;-48
2022/05/20 02:24:45;;;;;;;;;;;;;;;;;;5054035;28;20003;-42
2022/05/20 02:27:12;;;;;;;;;;;;;;;;;;5053533;28;19920;-47
2022/05/20 02:29:38;;;;;;;;;;;;;;;;;;5052884;28;19908;-51
2022/05/20 02:32:05;;;;;;;;;;;;;;;;;;5054202;28;19960;-49
2022/05/20 02:34:34;;;;;;;;;;;;;;;;;;5053896;28;19920;-43
2022/05/20 02:37:00;;;;;;;;;;;;;;;;;;5053660;28;20011;-45
2022/05/20 02:39:27;;;;;;;;;;;;;;;;;;5054160;28;19915;-50
2022/05/20 02:41:53;;;;;;;;;;;;;;;;;;5053946;28;19955;-51
2022/05/20 02:44:20;;;;;;;;;;;;;;;;;;5049855;28;19913;-45
2022/05/20 02:46:49;;;;;;;;;;;;;;;;;;5053850;28;20372;-55
2022/05/20 02:49:16;;;;;;;;;;;;;;;;;;5053833;28;19920;-57
2022/05/20 02:51:42;;;;;;;;;;;;;;;;;;5053638;28;19905;-51
2022/05/20 02:54:09;;;;;;;;;;;;;;;;;;5052471;28;19940;-44
2022/05/20 02:56:35;;;;;;;;;;;;;;;;;;5053296;28;19905;-56
2022/05/20 03:04:31;;;;;;;;;;;;;;;;;;5053353;28;19951;-44
2022/05/20 03:06:57;;;;;;;;;;;;;;;;;;5053611;28;19917;-56
2022/05/20 03:09:24;;;;;;;;;;;;;;;;;;5051530;28;19978;-45
2022/05/20 03:11:51;;;;;;;;;;;;;;;;;;5053400;28;20256;-50
2022/05/20 03:14:17;;;;;;;;;;;;;;;;;;5053274;28;20391;-55
2022/05/20 03:16:43;;;;;;;;;;;;;;;;;;5053179;28;19909;-44
2022/05/20 03:19:10;;;;;;;;;;;;;;;;;;5053302;28;19909;-51
2022/05/20 03:21:37;;;;;;;;;;;;;;;;;;5053347;28;19916;-48
2022/05/20 03:24:04;;;;;;;;;;;;;;;;;;5053389;28;19909;-46
2022/05/20 03:26:30;;;;;;;;;;;;;;;;;;5053184;28;20034;-40
2022/05/20 03:29:02;;;;;;;;;;;;;;;;;;5052849;28;19919;-53
2022/05/20 03:31:28;;;;;;;;;;;;;;;;;;5053526;28;19916;-47
2022/05/20 03:33:55;;;;;;;;;;;;;;;;;;5052893;28;20363;-52
2022/05/20 03:36:21;;;;;;;;;;;;;;;;;;5052490;28;19913;-54
2022/05/20 03:38:48;;;;;;;;;;;;;;;;;;5053282;28;19917;-49
2022/05/20 03:41:14;;;;;;;;;;;;;;;;;;5053019;28;19915;-54
2022/05/20 03:43:41;;;;;;;;;;;;;;;;;;5052427;28;19916;-57
2022/05/20 03:46:07;;;;;;;;;;;;;;;;;;5052128;28;19933;-52
2022/05/20 03:48:33;;;;;;;;;;;;;;;;;;5052373;28;20283;-60
2022/05/20 03:51:00;;;;;;;;;;;;;;;;;;5052830;28;19991;-60
2022/05/20 03:53:26;;;;;;;;;;;;;;;;;;5053280;28;19978;-61
2022/05/20 03:55:53;;;;;;;;;;;;;;;;;;5052402;28;19913;-54
2022/05/20 03:58:19;;;;;;;;;;;;;;;;;;5051990;28;19908;-59
2022/05/20 04:03:31;;;;;;;;;;;;;;;;;;5052477;28;19974;-42
2022/05/20 04:05:57;;;;;;;;;;;;;;;;;;5052505;28;19985;-42
2022/05/20 04:08:24;;;;;;;;;;;;;;;;;;5052235;28;19970;-41
2022/05/20 04:10:51;;;;;;;;;;;;;;;;;;5052260;28;19909;-39
2022/05/20 04:13:17;;;;;;;;;;;;;;;;;;5051896;28;19928;-42
2022/05/20 04:15:44;;;;;;;;;;;;;;;;;;5052443;28;19937;-39
2022/05/20 04:18:10;;;;;;;;;;;;;;;;;;5052312;28;20004;-40
2022/05/20 04:20:36;;;;;;;;;;;;;;;;;;5051941;28;19919;-44
2022/05/20 04:23:03;;;;;;;;;;;;;;;;;;5052625;28;19909;-40
2022/05/20 04:25:29;;;;;;;;;;;;;;;;;;5052179;28;19909;-40
2022/05/20 04:27:56;;;;;;;;;;;;;;;;;;5052579;28;20024;-44
2022/05/20 04:30:22;;;;;;;;;;;;;;;;;;5051671;28;20371;-45
2022/05/20 04:32:49;;;;;;;;;;;;;;;;;;5051880;28;19909;-44
2022/05/20 04:35:15;;;;;;;;;;;;;;;;;;5052184;28;20004;-46
2022/05/20 04:37:42;;;;;;;;;;;;;;;;;;5051932;28;19940;-41
2022/05/20 04:40:08;;;;;;;;;;;;;;;;;;5051931;28;19991;-44
2022/05/20 04:48:04;;;;;;;;;;;;;;;;;;5051835;28;19924;-41
2022/05/20 04:50:30;;;;;;;;;;;;;;;;;;5051705;28;19917;-40
2022/05/20 04:52:57;;;;;;;;;;;;;;;;;;5052179;28;19995;-39
2022/05/20 04:55:23;;;;;;;;;;;;;;;;;;5052235;28;20371;-44
2022/05/20 04:57:50;;;;;;;;;;;;;;;;;;5051505;28;19908;-40
2022/05/20 05:00:17;;;;;;;;;;;;;;;;;;5051593;28;20018;-42
2022/05/20 05:02:44;;;;;;;;;;;;;;;;;;5050606;28;19917;-40
2022/05/20 05:05:10;;;;;;;;;;;;;;;;;;5052170;28;19909;-42
2022/05/20 05:07:37;;;;;;;;;;;;;;;;;;5051563;28;19917;-41
2022/05/20 05:10:03;;;;;;;;;;;;;;;;;;5053235;28;19915;-41
2022/05/20 05:12:30;;;;;;;;;;;;;;;;;;5054978;28;19920;-43
2022/05/20 05:14:57;;;;;;;;;;;;;;;;;;5055599;28;19985;-41
2022/05/20 05:20:07;;;;;;;;;;;;;;;;;;5055515;28;19970;-40
2022/05/20 05:22:34;;;;;;;;;;;;;;;;;;5054952;28;20201;-42
2022/05/20 05:25:00;;;;;;;;;;;;;;;;;;5055007;28;20442;-41
2022/05/20 05:27:27;;;;;;;;;;;;;;;;;;5055143;28;19978;-41
2022/05/20 05:29:53;;;;;;;;;;;;;;;;;;5055145;28;19909;-43
2022/05/20 05:32:20;;;;;;;;;;;;;;;;;;5054656;28;19909;-41
2022/05/20 05:34:46;;;;;;;;;;;;;;;;;;5055285;28;19955;-43
2022/05/20 05:37:13;;;;;;;;;;;;;;;;;;5055121;28;19909;-40
2022/05/20 05:39:39;;;;;;;;;;;;;;;;;;5054669;28;20642;-41
2022/05/20 05:42:06;;;;;;;;;;;;;;;;;;5054654;28;19946;-49
2022/05/20 05:44:32;;;;;;;;;;;;;;;;;;5054850;28;19995;-40
2022/05/20 05:46:59;;;;;;;;;;;;;;;;;;5054423;28;20030;-41
2022/05/20 05:49:26;;;;;;;;;;;;;;;;;;5054679;28;20497;-44
2022/05/20 05:51:54;;;;;;;;;;;;;;;;;;5054424;28;19944;-43
2022/05/20 05:54:22;;;;;;;;;;;;;;;;;;5054340;28;19916;-44
2022/05/20 05:56:49;;;;;;;;;;;;;;;;;;5054581;28;19921;-42
2022/05/20 05:59:15;;;;;;;;;;;;;;;;;;5054340;28;20363;-39
2022/05/20 06:01:42;;;;;;;;;;;;;;;;;;5053350;28;19923;-41
2022/05/20 06:04:08;;;;;;;;;;;;;;;;;;5053903;28;19909;-42
2022/05/20 06:06:35;;;;;;;;;;;;;;;;;;5053288;28;19917;-42
2022/05/20 06:09:02;;;;;;;;;;;;;;;;;;5054034;28;19966;-40
2022/05/20 06:11:29;;;;;;;;;;;;;;;;;;5053994;28;20333;-39
2022/05/20 06:13:56;;;;;;;;;;;;;;;;;;5054332;28;19927;-40
2022/05/20 06:16:22;;;;;;;;;;;;;;;;;;5054286;28;19995;-41
2022/05/20 06:18:50;;;;;;;;;;;;;;;;;;5052709;28;19943;-42
2022/05/20 06:21:17;;;;;;;;;;;;;;;;;;5053595;28;19909;-40
2022/05/20 06:23:43;;;;;;;;;;;;;;;;;;5054243;28;19916;-44
2022/05/20 06:26:10;;;;;;;;;;;;;;;;;;5054121;28;19912;-42
2022/05/20 06:28:36;;;;;;;;;;;;;;;;;;5054110;28;19955;-41
2022/05/20 06:31:03;;;;;;;;;;;;;;;;;;5052902;28;19944;-45
2022/05/20 06:33:29;;;;;;;;;;;;;;;;;;5053518;28;19909;-45
2022/05/20 06:41:42;;;;;;;;;;;;;;;;;;5053438;28;19911;-43
2022/05/20 06:44:08;;;;;;;;;;;;;;;;;;5053453;28;19936;-40
2022/05/20 06:46:35;;;;;;;;;;;;;;;;;;5053528;28;19916;-42
2022/05/20 06:49:01;;;;;;;;;;;;;;;;;;5053624;28;20376;-40
2022/05/20 06:51:28;;;;;;;;;;;;;;;;;;5053369;28;19919;-42
2022/05/20 06:53:54;;;;;;;;;;;;;;;;;;5053542;28;19962;-43
2022/05/20 06:56:21;;;;;;;;;;;;;;;;;;5053434;28;20445;-39
2022/05/20 06:58:47;;;;;;;;;;;;;;;;;;5053177;28;19996;-44
2022/05/20 07:01:14;;;;;;;;;;;;;;;;;;5053264;28;20382;-39
2022/05/20 07:03:40;;;;;;;;;;;;;;;;;;5053439;28;19915;-49
2022/05/20 07:06:07;;;;;;;;;;;;;;;;;;5053566;28;20004;-51
2022/05/20 07:08:33;;;;;;;;;;;;;;;;;;5053511;28;20381;-52
2022/05/20 07:11:01;;;;;;;;;;;;;;;;;;5053505;28;20283;-54
2022/05/20 07:13:28;;;;;;;;;;;;;;;;;;5052024;28;19921;-55
2022/05/20 07:15:55;;;;;;;;;;;;;;;;;;5052970;28;19951;-57
2022/05/20 07:18:21;;;;;;;;;;;;;;;;;;5053162;28;19913;-55
2022/05/20 07:20:48;;;;;;;;;;;;;;;;;;5052977;28;19908;-59
2022/05/20 07:23:14;;;;;;;;;;;;;;;;;;5053307;28;19963;-48
2022/05/20 07:25:40;;;;;;;;;;;;;;;;;;5052532;28;19959;-54
2022/05/20 07:28:07;;;;;;;;;;;;;;;;;;5052750;28;19923;-54
2022/05/20 07:30:33;;;;;;;;;;;;;;;;;;5052520;28;20344;-58
2022/05/20 07:33:00;;;;;;;;;;;;;;;;;;5051932;28;19909;-55
2022/05/20 07:35:26;;;;;;;;;;;;;;;;;;5052906;28;19957;-51
2022/05/20 07:37:53;;;;;;;;;;;;;;;;;;5052908;28;19915;-56
2022/05/20 07:40:19;;;;;;;;;;;;;;;;;;5052329;28;20006;-59
2022/05/20 07:42:46;;;;;;;;;;;;;;;;;;5053185;28;20384;-53
2022/05/20 07:45:12;;;;;;;;;;;;;;;;;;5052741;28;19932;-60
2022/05/20 07:47:39;;;;;;;;;;;;;;;;;;5052377;28;19970;-54
2022/05/20 07:50:05;;;;;;;;;;;;;;;;;;5052693;28;20240;-55
2022/05/20 07:55:16;;;;;;;;;;;;;;;;;;5052065;28;20389;-52
2022/05/20 07:57:43;;;;;;;;;;;;;;;;;;5052667;28;19915;-61
2022/05/20 08:00:12;;;;;;;;;;;;;;;;;;5052578;28;19909;-61
2022/05/20 08:02:39;;;;;;;;;;;;;;;;;;5051802;28;20275;-49
2022/05/20 08:05:07;;;;;;;;;;;;;;;;;;5052445;28;19948;-44
2022/05/20 08:07:33;;;;;;;;;;;;;;;;;;5050978;28;19917;-42
2022/05/20 08:10:00;;;;;;;;;;;;;;;;;;5052243;28;19988;-41
2022/05/20 08:12:26;;;;;;;;;;;;;;;;;;5052132;28;20022;-41
2022/05/20 08:14:53;;;;;;;;;;;;;;;;;;5052228;28;19913;-43
2022/05/20 08:17:20;;;;;;;;;;;;;;;;;;5052312;28;19905;-42
2022/05/20 08:19:47;;;;;;;;;;;;;;;;;;5052426;28;19909;-44
2022/05/20 08:22:14;;;;;;;;;;;;;;;;;;5052237;28;19908;-43
2022/05/20 08:24:40;;;;;;;;;;;;;;;;;;5051909;28;19999;-43
2022/05/20 08:27:07;;;;;;;;;;;;;;;;;;5052394;28;19912;-41
2022/05/20 08:29:33;;;;;;;;;;;;;;;;;;5051669;28;19958;-43
2022/05/20 08:32:00;;;;;;;;;;;;;;;;;;5052290;28;20382;-42
2022/05/20 08:34:26;;;;;;;;;;;;;;;;;;5052441;28;19909;-41
2022/05/20 08:36:53;;;;;;;;;;;;;;;;;;5052656;28;19913;-41
2022/05/20 08:39:19;;;;;;;;;;;;;;;;;;5051549;28;20263;-42
2022/05/20 08:41:46;;;;;;;;;;;;;;;;;;5052206;28;19945;-42
2022/05/20 08:44:12;;;;;;;;;;;;;;;;;;5052126;28;19920;-45
2022/05/20 08:46:39;;;;;;;;;;;;;;;;;;5056238;28;19909;-47
2022/05/20 08:49:06;;;;;;;;;;;;;;;;;;5056128;28;19917;-42
2022/05/20 08:51:35;;;;;;;;;;;;;;;;;;5056024;28;19913;-41
2022/05/20 08:54:02;;;;;;;;;;;;;;;;;;5055924;28;19955;-47
2022/05/20 08:56:28;;;;;;;;;;;;;;;;;;5055931;28;19908;-50
2022/05/20 08:58:55;;;;;;;;;;;;;;;;;;5056118;28;19946;-42
2022/05/20 09:01:21;;;;;;;;;;;;;;;;;;5055651;28;20311;-58
2022/05/20 09:03:48;;;;;;;;;;;;;;;;;;5056028;28;20393;-55
2022/05/20 09:06:15;;;;;;;;;;;;;;;;;;5056351;28;19985;-56
2022/05/20 09:08:42;;;;;;;;;;;;;;;;;;5056089;28;20460;-60
2022/05/20 09:11:08;;;;;;;;;;;;;;;;;;5055588;28;20263;-54
2022/05/20 09:16:19;;;;;;;;;;;;;;;;;;5055849;28;19932;-59
2022/05/20 09:18:46;;;;;;;;;;;;;;;;;;5055724;28;19909;-59
2022/05/20 09:21:13;;;;;;;;;;;;;;;;;;5055866;28;19909;-55
2022/05/20 09:23:39;;;;;;;;;;;;;;;;;;5055676;28;19909;-62
2022/05/20 09:26:06;;;;;;;;;;;;;;;;;;5055939;28;19955;-58
2022/05/20 09:28:32;;;;;;;;;;;;;;;;;;5055507;28;20000;-59
2022/05/20 09:30:59;;;;;;;;;;;;;;;;;;5056347;28;19913;-50
2022/05/20 09:33:26;;;;;;;;;;;;;;;;;;5055720;28;19915;-55
2022/05/20 09:35:53;;;;;;;;;;;;;;;;;;5054127;28;19909;-49
2022/05/20 09:38:19;;;;;;;;;;;;;;;;;;5055258;28;20003;-60
2022/05/20 09:40:48;;;;;;;;;;;;;;;;;;5055582;28;19909;-57
2022/05/20 09:43:14;;;;;;;;;;;;;;;;;;5055354;28;19908;-65
2022/05/20 09:45:41;;;;;;;;;;;;;;;;;;5055406;28;20063;-54
2022/05/20 09:48:07;;;;;;;;;;;;;;;;;;5055552;28;20356;-58
2022/05/20 09:50:34;;;;;;;;;;;;;;;;;;5053889;28;19915;-61
2022/05/20 09:53:00;;;;;;;;;;;;;;;;;;5055447;28;19909;-57
2022/05/20 09:55:28;;;;;;;;;;;;;;;;;;5061915;28;19913;-57
2022/05/20 09:57:54;;;;;;;;;;;;;;;;;;5074297;28;19999;-54
2022/05/20 10:00:21;;;;;;;;;;;;;;;;;;5074634;28;19908;-42
2022/05/20 10:02:47;;;;;;;;;;;;;;;;;;5074526;28;19915;-40
2022/05/20 10:05:14;;;;;;;;;;;;;;;;;;5075086;28;19909;-43
2022/05/20 10:07:40;;;;;;;;;;;;;;;;;;5074475;28;20279;-39
2022/05/20 10:10:07;;;;;;;;;;;;;;;;;;5074689;28;19915;-48
2022/05/20 10:12:33;;;;;;;;;;;;;;;;;;5074480;28;19924;-42
2022/05/20 10:15:00;;;;;;;;;;;;;;;;;;5073411;28;19909;-42
2022/05/20 10:17:27;;;;;;;;;;;;;;;;;;5074473;28;19999;-57
2022/05/20 10:19:53;;;;;;;;;;;;;;;;;;5074544;28;20385;-41
2022/05/20 10:22:21;;;;;;;;;;;;;;;;;;5074874;28;19908;-41
2022/05/20 10:24:48;;;;;;;;;;;;;;;;;;5074370;28;19909;-41
2022/05/20 10:27:14;;;;;;;;;;;;;;;;;;5074027;28;20316;-40
2022/05/20 10:32:34;;;;;;;;;;;;;;;;;;5074683;28;19970;-39
2022/05/20 10:35:01;;;;;;;;;;;;;;;;;;5074414;28;19914;-40
2022/05/20 10:37:28;;;;;;;;;;;;;;;;;;5073762;28;19916;-43
2022/05/20 10:39:55;;;;;;;;;;;;;;;;;;5074615;28;19912;-42
2022/05/20 10:42:21;;;;;;;;;;;;;;;;;;5074411;28;19912;-38
2022/05/20 10:50:17;;;;;;;;;;;;;;;;;;5074146;28;20487;-39
2022/05/20 10:52:43;;;;;;;;;;;;;;;;;;5074006;28;19909;-41
2022/05/20 10:55:10;;;;;;;;;;;;;;;;;;5073728;28;20376;-52
2022/05/20 10:57:36;;;;;;;;;;;;;;;;;;5073692;28;20271;-42
2022/05/20 11:00:03;;;;;;;;;;;;;;;;;;5073771;28;19909;-39
2022/05/20 11:02:29;;;;;;;;;;;;;;;;;;5073804;28;19978;-58
2022/05/20 11:04:56;;;;;;;;;;;;;;;;;;5073913;28;19909;-55
2022/05/20 11:07:22;;;;;;;;;;;;;;;;;;5073323;28;20366;-59
2022/05/20 11:09:49;;;;;;;;;;;;;;;;;;5073223;28;19908;-58
2022/05/20 11:12:15;;;;;;;;;;;;;;;;;;5073450;28;19908;-55
2022/05/20 11:14:42;;;;;;;;;;;;;;;;;;5073819;28;19917;-57
2022/05/20 11:17:08;;;;;;;;;;;;;;;;;;5073671;28;19915;-61
2022/05/20 11:19:35;;;;;;;;;;;;;;;;;;5073773;28;19912;-54
2022/05/20 11:22:02;;;;;;;;;;;;;;;;;;5073728;28;20283;-61
2022/05/20 11:24:28;;;;;;;;;;;;;;;;;;5073538;28;19912;-60
2022/05/20 11:26:55;;;;;;;;;;;;;;;;;;5073091;28;19909;-54
2022/05/20 11:29:21;;;;;;;;;;;;;;;;;;5073047;28;19919;-60
2022/05/20 11:31:48;;;;;;;;;;;;;;;;;;5073422;28;19943;-55
2022/05/20 11:34:15;;;;;;;;;;;;;;;;;;5073215;28;19908;-56
2022/05/20 11:36:41;;;;;;;;;;;;;;;;;;5073292;28;19923;-60
2022/05/20 11:39:08;;;;;;;;;;;;;;;;;;5073039;28;19932;-56
2022/05/20 11:41:34;;;;;;;;;;;;;;;;;;5073651;28;19909;-60
2022/05/20 11:44:01;;;;;;;;;;;;;;;;;;5073023;28;19920;-52
2022/05/20 11:46:27;;;;;;;;;;;;;;;;;;5073022;28;19920;-55
2022/05/20 11:48:54;;;;;;;;;;;;;;;;;;5073249;28;19962;-46
2022/05/20 11:51:20;;;;;;;;;;;;;;;;;;5072883;28;20313;-50
2022/05/20 11:53:47;;;;;;;;;;;;;;;;;;5072740;28;19955;-55
2022/05/20 11:56:14;;;;;;;;;;;;;;;;;;5072914;28;19931;-57
2022/05/20 11:58:40;;;;;;;;;;;;;;;;;;5071550;28;19913;-55
2022/05/20 12:01:07;;;;;;;;;;;;;;;;;;5071548;28;19919;-42
2022/05/20 12:04:19;;;;;;;;;;;;;;;;;;5072871;28;19970;-44
2022/05/20 12:06:20;;;;;;;;;;;;;;;;;;5064885;28;19912;-60
2022/05/20 12:08:46;;;;;;;;;;;;;;;;;;5072739;28;20408;-56
2022/05/20 12:11:13;;;;;;;;;;;;;;;;;;5072634;28;19916;-49
2022/05/20 12:13:39;;;;;;;;;;;;;;;;;;5072818;28;19928;-42
2022/05/20 12:16:06;;;;;;;;;;;;;;;;;;5072354;28;19908;-50
2022/05/20 12:24:23;;;;;;;;;;;;;;;;;;5072366;28;20477;-45
2022/05/20 12:26:48;;;;;;;;;;;;;;;;;;5071899;28;19916;-40
2022/05/20 12:29:16;;;;;;;;;;;;;;;;;;5072440;28;19999;-41
2022/05/20 12:31:43;;;;;;;;;;;;;;;;;;5072591;28;19909;-44
2022/05/20 12:34:14;;;;;;;;;;;;;;;;;;5072534;28;19916;-40
2022/05/20 12:36:40;;;;;;;;;;;;;;;;;;5072269;28;19978;-39
2022/05/20 12:39:10;;;;;;;;;;;;;;;;;;5072296;28;19987;-40
2022/05/20 12:41:36;;;;;;;;;;;;;;;;;;5072292;28;19955;-40
2022/05/20 12:44:03;;;;;;;;;;;;;;;;;;5072452;28;19908;-42
2022/05/20 12:46:29;;;;;;;;;;;;;;;;;;5072181;28;19940;-42
2022/05/20 12:48:56;;;;;;;;;;;;;;;;;;5072664;28;19962;-43
2022/05/20 12:51:22;;;;;;;;;;;;;;;;;;5071075;28;19908;-51
2022/05/20 12:53:49;;;;;;;;;;;;;;;;;;5072429;28;20333;-49
2022/05/20 12:56:15;;;;;;;;;;;;;;;;;;5072475;28;19915;-40
2022/05/20 12:58:43;;;;;;;;;;;;;;;;;;5072341;28;20005;-44
2022/05/20 13:01:09;;;;;;;;;;;;;;;;;;5072240;28;19909;-56
2022/05/20 13:03:36;;;;;;;;;;;;;;;;;;5072806;28;19954;-53
2022/05/20 13:06:02;;;;;;;;;;;;;;;;;;5072814;28;19904;-52
2022/05/20 13:08:29;;;;;;;;;;;;;;;;;;5072520;28;19939;-60
2022/05/20 13:10:55;;;;;;;;;;;;;;;;;;5072625;28;19948;-62
2022/05/20 13:13:25;;;;;;;;;;;;;;;;;;5072249;28;20007;-61
2022/05/20 13:15:51;;;;;;;;;;;;;;;;;;5072694;28;20286;-60
2022/05/20 13:18:18;;;;;;;;;;;;;;;;;;5071096;28;19966;-52
2022/05/20 13:20:45;;;;;;;;;;;;;;;;;;5072174;28;19912;-43
2022/05/20 13:23:11;;;;;;;;;;;;;;;;;;5071729;28;19913;-50
2022/05/20 13:25:38;;;;;;;;;;;;;;;;;;5072391;28;19916;-51
2022/05/20 13:28:04;;;;;;;;;;;;;;;;;;5072088;28;19916;-50
2022/05/20 13:30:31;;;;;;;;;;;;;;;;;;5072138;28;20042;-44
2022/05/20 13:32:57;;;;;;;;;;;;;;;;;;5074842;28;19909;-46
2022/05/20 13:35:24;;;;;;;;;;;;;;;;;;5075383;28;19909;-50
2022/05/20 13:37:50;;;;;;;;;;;;;;;;;;5075681;28;19909;-45
2022/05/20 13:40:17;;;;;;;;;;;;;;;;;;5075709;28;19936;-52
2022/05/20 13:42:43;;;;;;;;;;;;;;;;;;5075354;28;19951;-51
2022/05/20 13:45:10;;;;;;;;;;;;;;;;;;5075349;28;19916;-47
2022/05/20 13:50:21;;;;;;;;;;;;;;;;;;5075639;28;20062;-52
2022/05/20 13:52:49;;;;;;;;;;;;;;;;;;5075183;28;19965;-59
2022/05/20 13:55:15;;;;;;;;;;;;;;;;;;5075539;28;19955;-46
2022/05/20 13:57:41;;;;;;;;;;;;;;;;;;5075425;28;19916;-52
2022/05/20 14:00:08;;;;;;;;;;;;;;;;;;5075112;28;20373;-58
2022/05/20 14:02:35;;;;;;;;;;;;;;;;;;5074084;28;20271;-47
2022/05/20 14:05:02;;;;;;;;;;;;;;;;;;5073522;28;19920;-41
2022/05/20 14:07:29;;;;;;;;;;;;;;;;;;5074680;28;19916;-40
2022/05/20 14:09:55;;;;;;;;;;;;;;;;;;5074966;28;19908;-41
2022/05/20 14:12:22;;;;;;;;;;;;;;;;;;5074597;28;19915;-44
2022/05/20 14:14:48;;;;;;;;;;;;;;;;;;5075117;28;19952;-41
2022/05/20 14:17:15;;;;;;;;;;;;;;;;;;5074662;28;19954;-39
2022/05/20 14:19:41;;;;;;;;;;;;;;;;;;5074955;28;19935;-45
2022/05/20 14:22:08;;;;;;;;;;;;;;;;;;5074616;28;19954;-40
2022/05/20 14:24:34;;;;;;;;;;;;;;;;;;5074403;28;20363;-39
2022/05/20 14:27:01;;;;;;;;;;;;;;;;;;5074691;28;19908;-50
2022/05/20 14:29:27;;;;;;;;;;;;;;;;;;5074375;28;19919;-54
2022/05/20 14:31:53;;;;;;;;;;;;;;;;;;5074516;28;19955;-55
2022/05/20 14:34:20;;;;;;;;;;;;;;;;;;5074013;28;19931;-59
2022/05/20 14:36:47;;;;;;;;;;;;;;;;;;5074156;28;20000;-55
2022/05/20 14:39:16;;;;;;;;;;;;;;;;;;5074083;28;19975;-56
2022/05/20 14:41:43;;;;;;;;;;;;;;;;;;5073173;28;19999;-56
2022/05/20 14:44:09;;;;;;;;;;;;;;;;;;5073654;28;20007;-58
2022/05/20 14:49:20;;;;;;;;;;;;;;;;;;5074439;28;19923;-56
2022/05/20 14:51:47;;;;;;;;;;;;;;;;;;5073675;28;19913;-53
2022/05/20 14:54:14;;;;;;;;;;;;;;;;;;5073884;28;19909;-55
2022/05/20 14:56:40;;;;;;;;;;;;;;;;;;5073769;28;20295;-56
2022/05/20 14:59:07;;;;;;;;;;;;;;;;;;5073786;28;19915;-48
2022/05/20 15:01:33;;;;;;;;;;;;;;;;;;5074154;28;19915;-51
2022/05/20 15:03:59;;;;;;;;;;;;;;;;;;5074248;28;19908;-58
2022/05/20 15:06:26;;;;;;;;;;;;;;;;;;5074148;28;19909;-55
2022/05/20 15:08:53;;;;;;;;;;;;;;;;;;5074062;28;19967;-49
2022/05/20 15:11:19;;;;;;;;;;;;;;;;;;5073972;28;19908;-53
2022/05/20 15:13:46;;;;;;;;;;;;;;;;;;5073945;28;20011;-54
2022/05/20 15:16:12;;;;;;;;;;;;;;;;;;5073982;28;19915;-50
2022/05/20 15:18:38;;;;;;;;;;;;;;;;;;5074096;28;19914;-42
2022/05/20 15:21:05;;;;;;;;;;;;;;;;;;5073866;28;19916;-52
2022/05/20 15:23:31;;;;;;;;;;;;;;;;;;5073761;28;19912;-51
2022/05/20 15:25:58;;;;;;;;;;;;;;;;;;5073802;28;20295;-51
2022/05/20 15:36:38;;;;;;;;;;;;;;;;;;5073667;28;19970;-44
2022/05/20 15:39:05;;;;;;;;;;;;;;;;;;5073541;28;19940;-51
2022/05/20 15:41:31;;;;;;;;;;;;;;;;;;5073572;28;19919;-47
2022/05/20 15:43:58;;;;;;;;;;;;;;;;;;5073382;28;19919;-42
2022/05/20 15:46:24;;;;;;;;;;;;;;;;;;5073405;28;19908;-51
2022/05/20 15:48:50;;;;;;;;;;;;;;;;;;5073200;28;19923;-45
2022/05/20 15:51:17;;;;;;;;;;;;;;;;;;5072855;28;19951;-45
2022/05/20 15:53:43;;;;;;;;;;;;;;;;;;5072986;28;19909;-50
2022/05/20 15:56:10;;;;;;;;;;;;;;;;;;5072964;28;19920;-50
2022/05/20 15:58:36;;;;;;;;;;;;;;;;;;5073237;28;20352;-46
2022/05/20 16:01:03;;;;;;;;;;;;;;;;;;5072526;28;20380;-44
2022/05/20 16:03:30;;;;;;;;;;;;;;;;;;5072249;28;19999;-54
2022/05/20 16:05:57;;;;;;;;;;;;;;;;;;5073153;28;20294;-49
2022/05/20 16:08:23;;;;;;;;;;;;;;;;;;5072456;28;20287;-46
2022/05/20 16:10:50;;;;;;;;;;;;;;;;;;5072582;28;19970;-54
2022/05/20 16:13:16;;;;;;;;;;;;;;;;;;5072063;28;19950;-48
2022/05/20 16:15:43;;;;;;;;;;;;;;;;;;5072759;28;20303;-57
2022/05/20 16:18:09;;;;;;;;;;;;;;;;;;5072746;28;20285;-59
2022/05/20 16:20:36;;;;;;;;;;;;;;;;;;5072672;28;20322;-61
2022/05/20 16:23:03;;;;;;;;;;;;;;;;;;5072035;28;19932;-53
2022/05/20 16:25:30;;;;;;;;;;;;;;;;;;5072399;28;19908;-58
2022/05/20 16:27:56;;;;;;;;;;;;;;;;;;5072411;28;19923;-57
2022/05/20 16:30:23;;;;;;;;;;;;;;;;;;5072450;28;19955;-49
2022/05/20 16:32:50;;;;;;;;;;;;;;;;;;5072290;28;19915;-49
2022/05/20 16:35:16;;;;;;;;;;;;;;;;;;5072294;28;20004;-59
2022/05/20 16:37:43;;;;;;;;;;;;;;;;;;5072400;28;19915;-54
2022/05/20 16:40:09;;;;;;;;;;;;;;;;;;5072452;28;19908;-54
2022/05/20 16:42:36;;;;;;;;;;;;;;;;;;5072102;28;19912;-52
2022/05/20 16:45:02;;;;;;;;;;;;;;;;;;5072273;28;19909;-45
2022/05/20 16:47:28;;;;;;;;;;;;;;;;;;5072065;28;19912;-59
2022/05/20 16:49:55;;;;;;;;;;;;;;;;;;5072489;28;19909;-55
2022/05/20 16:52:21;;;;;;;;;;;;;;;;;;5072034;28;19943;-45
2022/05/20 16:54:50;;;;;;;;;;;;;;;;;;5072227;28;19969;-53
2022/05/20 17:02:45;;;;;;;;;;;;;;;;;;5072588;28;19931;-47
2022/05/20 17:05:12;;;;;;;;;;;;;;;;;;5072667;28;19982;-52
2022/05/20 17:07:38;;;;;;;;;;;;;;;;;;5076732;28;19916;-54
2022/05/20 17:10:04;;;;;;;;;;;;;;;;;;5076504;28;20375;-50
2022/05/20 17:12:31;;;;;;;;;;;;;;;;;;5076207;28;20248;-43
2022/05/20 17:14:57;;;;;;;;;;;;;;;;;;5076508;28;19912;-43
2022/05/20 17:17:24;;;;;;;;;;;;;;;;;;5076201;28;19916;-46
2022/05/20 17:19:50;;;;;;;;;;;;;;;;;;5076236;28;19916;-46
2022/05/20 17:25:01;;;;;;;;;;;;;;;;;;5076274;28;19920;-44
2022/05/20 17:27:28;;;;;;;;;;;;;;;;;;5076061;28;20003;-44
2022/05/20 17:29:55;;;;;;;;;;;;;;;;;;5076174;28;19908;-41
2022/05/20 17:32:21;;;;;;;;;;;;;;;;;;5075980;28;19915;-40
2022/05/20 17:34:47;;;;;;;;;;;;;;;;;;5075977;28;19915;-43
2022/05/20 17:37:14;;;;;;;;;;;;;;;;;;5075741;28;19931;-51
2022/05/20 17:39:40;;;;;;;;;;;;;;;;;;5075966;28;19908;-44
2022/05/20 17:42:07;;;;;;;;;;;;;;;;;;5076028;28;19915;-49
2022/05/20 17:44:33;;;;;;;;;;;;;;;;;;5075760;28;19908;-41
2022/05/20 17:47:00;;;;;;;;;;;;;;;;;;5075704;28;20339;-56